Time;durP1;ratioP1;P1;durP2;ratioP2;P2;SDS_P1;SDS_P2;PMS_P1;PMS_P2;Temp;Humidity;BMP_temperature;BMP_pressure;BME280_temperature;BME280_humidity;BME280_pressure;Samples;Min_cycle;Max_cycle;Signal;HPM_P1;HPM_P2
2023/07/22 00:00:15;;;;;;;14.07;4.97;;;12.30;99.90;;;;;;5119755;27;20047;-72
2023/07/22 00:02:42;;;;;;;12.30;5.20;;;12.30;99.90;;;;;;5119747;27;20043;-73
2023/07/22 00:05:08;;;;;;;;;;;12.30;99.90;;;;;;5138694;27;20055;-73
2023/07/22 00:07:34;;;;;;;16.27;5.20;;;12.30;99.90;;;;;;5154322;27;19919;-73
2023/07/22 00:10:00;;;;;;;10.90;4.55;;;12.20;99.90;;;;;;5119606;27;20504;-73
2023/07/22 00:12:26;;;;;;;15.57;4.80;;;12.20;99.90;;;;;;5153934;27;20051;-72
2023/07/22 00:14:55;;;;;;;16.67;5.13;;;12.20;99.90;;;;;;5119907;27;20176;-74
2023/07/22 00:17:24;;;;;;;16.58;4.78;;;12.20;99.90;;;;;;5117945;27;20134;-73
2023/07/22 00:19:50;;;;;;;17.95;5.32;;;12.10;99.90;;;;;;5119590;27;20039;-73
2023/07/22 00:22:16;;;;;;;17.33;5.30;;;12.10;99.90;;;;;;5153567;27;20096;-74
2023/07/22 00:24:42;;;;;;;12.50;5.28;;;12.10;99.90;;;;;;5137485;27;20062;-72
2023/07/22 00:27:08;;;;;;;18.05;5.95;;;12.00;99.90;;;;;;5102574;27;20047;-74
2023/07/22 00:29:35;;;;;;;13.95;5.47;;;12.00;99.90;;;;;;5119266;27;20054;-73
2023/07/22 00:32:00;;;;;;;16.70;5.70;;;12.00;99.90;;;;;;5137351;27;20078;-74
2023/07/22 00:34:26;;;;;;;16.65;5.32;;;11.90;99.90;;;;;;5119232;27;20081;-72
2023/07/22 00:36:52;;;;;;;12.65;4.43;;;11.90;99.90;;;;;;5119039;27;20056;-72
2023/07/22 00:39:18;;;;;;;15.80;5.20;;;11.90;99.90;;;;;;5102031;27;20043;-74
2023/07/22 00:41:47;;;;;;;14.32;5.15;;;11.90;99.90;;;;;;5119970;27;20136;-72
2023/07/22 00:44:13;;;;;;;17.63;5.85;;;11.90;99.90;;;;;;5137750;27;20047;-74
2023/07/22 00:46:39;;;;;;;15.57;5.40;;;11.90;99.90;;;;;;5118568;27;20551;-73
2023/07/22 00:49:07;;;;;;;13.65;5.72;;;11.90;99.90;;;;;;5118114;27;20494;-72
2023/07/22 00:51:33;;;;;;;12.27;5.05;;;11.90;99.90;;;;;;5118876;27;20122;-73
2023/07/22 00:53:59;;;;;;;11.10;4.97;;;11.80;99.90;;;;;;5136568;27;20194;-76
2023/07/22 00:56:25;;;;;;;15.07;5.45;;;11.90;99.90;;;;;;5136855;27;20055;-73
2023/07/22 00:58:51;;;;;;;15.40;5.43;;;11.80;99.90;;;;;;5101643;27;20054;-73
2023/07/22 01:01:17;;;;;;;13.93;5.18;;;11.90;99.90;;;;;;5118406;27;20284;-73
2023/07/22 01:03:43;;;;;;;12.55;4.60;;;11.90;99.90;;;;;;5121105;27;20043;-71
2023/07/22 01:06:10;;;;;;;16.90;5.50;;;11.90;99.90;;;;;;5142585;27;20043;-74
2023/07/22 01:08:36;;;;;;;15.60;5.60;;;11.90;99.90;;;;;;5124347;27;20281;-73
2023/07/22 01:11:01;;;;;;;15.73;5.30;;;11.90;99.90;;;;;;5118711;27;20092;-74
2023/07/22 01:13:27;;;;;;;12.75;5.18;;;11.80;99.90;;;;;;5102089;27;20046;-73
2023/07/22 01:15:54;;;;;;;13.63;5.22;;;11.90;99.90;;;;;;5101280;27;20055;-74
2023/07/22 01:18:19;;;;;;;15.77;5.35;;;11.90;99.90;;;;;;5136323;27;20119;-73
2023/07/22 01:20:46;;;;;;;15.75;6.32;;;11.90;99.90;;;;;;5136397;27;20039;-73
2023/07/22 01:23:12;;;;;;;14.27;5.43;;;11.90;99.90;;;;;;5136031;27;20402;-73
2023/07/22 01:25:38;;;;;;;16.92;5.97;;;11.90;99.90;;;;;;5101166;27;20160;-73
2023/07/22 01:28:08;;;;;;;13.05;5.65;;;11.90;99.90;;;;;;5135459;27;20054;-76
2023/07/22 01:30:34;;;;;;;13.40;5.13;;;11.90;99.90;;;;;;5136335;27;20133;-73
2023/07/22 01:33:00;;;;;;;13.88;5.30;;;12.00;99.90;;;;;;5100925;27;20475;-73
2023/07/22 01:35:26;;;;;;;15.77;5.60;;;12.00;99.90;;;;;;5100949;27;20441;-72
2023/07/22 01:37:52;;;;;;;16.83;5.68;;;12.00;99.90;;;;;;5118803;27;20073;-72
2023/07/22 01:40:17;;;;;;;13.65;5.57;;;12.00;99.90;;;;;;5083777;27;20043;-73
2023/07/22 01:42:43;;;;;;;15.38;5.43;;;12.00;99.90;;;;;;5117331;27;20043;-72
2023/07/22 01:45:10;;;;;;;16.25;5.65;;;12.10;99.90;;;;;;5135990;27;20126;-73
2023/07/22 01:47:37;;;;;;;14.43;6.38;;;12.00;99.90;;;;;;5117758;27;20069;-72
2023/07/22 01:50:03;;;;;;;15.75;5.72;;;12.00;99.90;;;;;;5135709;27;20039;-72
2023/07/22 01:52:29;;;;;;;16.23;5.63;;;12.10;99.90;;;;;;5136103;27;20043;-72
2023/07/22 01:54:55;;;;;;;14.75;6.07;;;12.10;99.90;;;;;;5135838;27;20498;-73
2023/07/22 01:57:21;;;;;;;17.75;6.13;;;12.10;99.90;;;;;;5134844;27;20093;-74
2023/07/22 01:59:46;;;;;;;17.48;5.95;;;12.10;99.90;;;;;;5134423;27;20097;-73
2023/07/22 02:02:12;;;;;;;15.05;6.05;;;12.20;99.90;;;;;;5117186;27;20043;-74
2023/07/22 02:04:38;;;;;;;15.70;6.03;;;12.20;99.90;;;;;;5135506;27;20091;-73
2023/07/22 02:07:04;;;;;;;14.77;5.82;;;12.30;99.90;;;;;;5151784;27;20046;-72
2023/07/22 02:09:29;;;;;;;14.90;6.10;;;12.30;99.90;;;;;;5117199;27;20146;-72
2023/07/22 02:11:55;;;;;;;20.17;6.47;;;12.30;99.90;;;;;;5101011;27;20039;-73
2023/07/22 02:14:21;;;;;;;20.52;6.07;;;12.40;99.90;;;;;;5139209;27;20047;-73
2023/07/22 02:16:46;;;;;;;17.58;6.22;;;12.40;99.90;;;;;;5123916;27;20100;-73
2023/07/22 02:19:12;;;;;;;15.75;5.63;;;12.40;99.90;;;;;;5117967;27;20074;-73
2023/07/22 02:21:38;;;;;;;20.90;6.82;;;12.50;99.90;;;;;;5100468;27;20050;-73
2023/07/22 02:24:04;;;;;;;19.00;6.80;;;12.50;99.90;;;;;;5135258;27;20031;-73
2023/07/22 02:26:29;;;;;;;16.70;6.47;;;12.60;99.90;;;;;;5135190;27;20043;-73
2023/07/22 02:28:55;;;;;;;21.85;6.57;;;12.60;99.90;;;;;;5135181;27;20060;-73
2023/07/22 02:31:22;;;;;;;16.73;6.18;;;12.60;99.90;;;;;;5135318;27;20180;-73
2023/07/22 02:33:48;;;;;;;17.25;6.57;;;12.60;99.90;;;;;;5117046;27;20055;-73
2023/07/22 02:36:14;;;;;;;16.98;7.00;;;12.70;99.90;;;;;;5116905;27;20175;-73
2023/07/22 02:38:39;;;;;;;17.67;7.10;;;12.70;99.90;;;;;;5116704;27;20502;-73
2023/07/22 02:41:07;;;;;;;15.73;7.03;;;12.70;99.90;;;;;;5116388;27;20043;-72
2023/07/22 02:43:34;;;;;;;17.10;7.47;;;12.60;99.90;;;;;;5135033;27;20035;-73
2023/07/22 02:46:02;;;;;;;17.25;6.68;;;12.60;99.90;;;;;;5116883;27;20050;-73
2023/07/22 02:48:28;;;;;;;19.30;7.25;;;12.60;99.90;;;;;;5117026;28;20039;-72
2023/07/22 02:50:55;;;;;;;23.55;7.18;;;12.70;99.90;;;;;;5116756;28;20131;-72
2023/07/22 02:53:20;;;;;;;17.45;7.35;;;12.70;99.90;;;;;;5116618;28;20406;-72
2023/07/22 02:55:46;;;;;;;17.33;7.32;;;12.70;99.90;;;;;;5116035;28;20126;-73
2023/07/22 02:58:12;;;;;;;17.27;7.20;;;12.70;99.90;;;;;;5117540;28;20047;-73
2023/07/22 03:00:38;;;;;;;17.67;7.17;;;12.70;99.90;;;;;;5116266;28;20051;-72
2023/07/22 03:03:05;;;;;;;18.58;6.50;;;12.60;99.90;;;;;;5134743;28;20043;-73
2023/07/22 03:05:32;;;;;;;17.73;6.65;;;12.60;99.90;;;;;;5134675;28;20407;-73
2023/07/22 03:07:58;;;;;;;;;;;12.60;99.90;;;;;;5135222;28;20058;-73
2023/07/22 03:10:28;;;;;;;19.93;7.20;;;12.60;99.90;;;;;;5117082;28;19938;-72
2023/07/22 03:12:55;;;;;;;17.63;6.82;;;12.60;99.90;;;;;;5134412;28;20273;-72
2023/07/22 03:15:25;;;;;;;18.42;6.85;;;12.70;99.90;;;;;;5150957;27;20047;-73
2023/07/22 03:17:52;;;;;;;15.93;6.78;;;12.70;99.90;;;;;;5118527;28;20126;-73
2023/07/22 03:20:19;;;;;;;17.63;7.35;;;12.60;99.90;;;;;;5133586;28;20099;-73
2023/07/22 03:22:45;;;;;;;16.15;6.68;;;12.70;99.90;;;;;;5122718;28;20043;-73
2023/07/22 03:25:12;;;;;;;18.40;7.35;;;12.70;99.90;;;;;;5128530;28;20047;-74
2023/07/22 03:27:38;;;;;;;;;;;12.70;99.90;;;;;;5100711;28;20051;-74
2023/07/22 03:30:07;;;;;;;16.13;7.57;;;12.70;99.90;;;;;;5116965;28;19983;-74
2023/07/22 03:32:33;;;;;;;18.05;6.72;;;12.70;99.90;;;;;;5099813;28;20050;-74
2023/07/22 03:34:59;;;;;;;13.60;6.90;;;12.70;99.90;;;;;;5116405;28;20047;-74
2023/07/22 03:37:25;;;;;;;17.27;7.15;;;12.70;99.90;;;;;;5150605;27;20047;-73
2023/07/22 03:39:51;;;;;;;16.90;6.78;;;12.80;99.90;;;;;;5116694;28;20086;-72
2023/07/22 03:42:16;;;;;;;16.27;6.85;;;12.80;99.90;;;;;;5115891;28;20039;-73
2023/07/22 03:44:42;;;;;;;15.73;7.20;;;12.80;99.90;;;;;;5134175;28;20174;-73
2023/07/22 03:47:08;;;;;;;21.70;7.50;;;12.90;99.90;;;;;;5099135;28;20080;-73
2023/07/22 03:49:33;;;;;;;16.42;7.05;;;12.90;99.90;;;;;;5116455;28;20095;-74
2023/07/22 03:51:59;;;;;;;16.75;7.40;;;12.90;99.90;;;;;;5119035;27;20051;-73
2023/07/22 03:54:25;;;;;;;16.60;6.75;;;12.90;99.90;;;;;;5120433;27;20050;-74
2023/07/22 03:56:50;;;;;;;19.15;7.75;;;12.90;99.90;;;;;;5138086;27;20043;-74
2023/07/22 03:59:16;;;;;;;18.65;6.82;;;13.00;99.90;;;;;;5119972;27;20092;-73
2023/07/22 04:01:43;;;;;;;19.08;7.18;;;13.00;99.90;;;;;;5137549;27;20083;-74
2023/07/22 04:04:09;;;;;;;17.58;7.30;;;13.00;99.90;;;;;;5138404;27;20172;-73
2023/07/22 04:06:34;;;;;;;15.82;6.80;;;13.10;99.90;;;;;;5137880;27;20509;-75
2023/07/22 04:09:00;;;;;;;18.17;6.97;;;13.10;99.90;;;;;;5069165;27;20074;-73
2023/07/22 04:11:27;;;;;;;15.15;6.40;;;13.20;99.90;;;;;;5137818;27;20074;-73
2023/07/22 04:13:53;;;;;;;18.30;7.00;;;13.20;99.90;;;;;;5119519;27;20138;-73
2023/07/22 04:16:18;;;;;;;17.95;7.30;;;13.30;99.90;;;;;;5137693;27;20055;-74
2023/07/22 04:18:44;;;;;;;16.60;7.28;;;13.20;99.90;;;;;;5119987;27;20359;-72
2023/07/22 04:21:10;;;;;;;15.63;7.43;;;13.20;99.90;;;;;;5154070;27;20045;-73
2023/07/22 04:23:36;;;;;;;13.90;6.82;;;13.20;99.90;;;;;;5138125;27;20104;-73
2023/07/22 04:26:07;;;;;;;15.60;7.13;;;13.20;99.90;;;;;;5119430;27;20047;-72
2023/07/22 04:28:34;;;;;;;17.67;7.20;;;13.20;99.90;;;;;;5119465;27;20047;-73
2023/07/22 04:31:00;;;;;;;;;;;13.30;99.90;;;;;;5130778;27;20043;-73
2023/07/22 04:33:27;;;;;;;16.97;6.50;;;13.30;99.90;;;;;;5159824;27;20021;-72
2023/07/22 04:35:55;;;;;;;16.48;7.47;;;13.30;99.90;;;;;;5125378;27;20046;-73
2023/07/22 04:38:21;;;;;;;17.45;7.18;;;13.40;99.90;;;;;;5119582;27;20058;-73
2023/07/22 04:40:47;;;;;;;16.98;7.45;;;13.40;99.90;;;;;;5119251;27;20454;-73
2023/07/22 04:43:13;;;;;;;15.50;6.93;;;13.40;99.90;;;;;;5118864;27;20046;-72
2023/07/22 04:45:40;;;;;;;15.45;6.57;;;13.50;99.90;;;;;;5102149;27;20490;-72
2023/07/22 04:48:06;;;;;;;17.30;6.75;;;13.50;99.90;;;;;;5119860;27;20051;-72
2023/07/22 04:50:32;;;;;;;15.10;7.45;;;13.50;99.90;;;;;;5137290;27;20539;-76
2023/07/22 04:52:58;;;;;;;15.63;7.20;;;13.50;99.90;;;;;;5137253;27;20043;-73
2023/07/22 04:55:24;;;;;;;14.93;6.78;;;13.50;99.90;;;;;;5097433;27;20348;-73
2023/07/22 04:57:51;;;;;;;16.15;6.63;;;13.50;99.90;;;;;;5135186;27;20051;-72
2023/07/22 05:00:18;;;;;;;15.57;7.13;;;13.50;99.90;;;;;;5136981;27;20055;-73
2023/07/22 05:02:48;;;;;;;16.08;7.13;;;13.50;99.90;;;;;;5117884;27;20121;-74
2023/07/22 05:05:14;;;;;;;14.48;7.15;;;13.50;99.90;;;;;;5118756;27;20039;-73
2023/07/22 05:07:40;;;;;;;19.50;7.70;;;13.60;99.90;;;;;;5118502;27;20096;-73
2023/07/22 05:10:11;;;;;;;18.83;7.80;;;13.60;99.90;;;;;;5136621;27;20046;-72
2023/07/22 05:12:38;;;;;;;20.52;7.93;;;13.60;99.90;;;;;;5137270;27;20114;-73
2023/07/22 05:15:05;;;;;;;21.35;8.32;;;13.60;99.90;;;;;;5118406;27;20047;-73
2023/07/22 05:17:31;;;;;;;17.42;7.65;;;13.60;99.90;;;;;;5101510;27;20047;-73
2023/07/22 05:19:57;;;;;;;20.30;8.00;;;13.60;99.90;;;;;;5136271;27;20088;-72
2023/07/22 05:22:23;;;;;;;19.65;8.05;;;13.60;99.90;;;;;;5084370;27;20285;-72
2023/07/22 05:24:49;;;;;;;18.43;8.40;;;13.60;99.90;;;;;;5135236;27;20039;-73
2023/07/22 05:27:16;;;;;;;22.42;8.85;;;13.60;99.90;;;;;;5136989;27;20732;-73
2023/07/22 05:29:42;;;;;;;;;;;13.60;99.90;;;;;;5101477;27;20047;-72
2023/07/22 05:32:08;;;;;;;20.30;8.83;;;13.60;99.90;;;;;;5117999;27;19994;-73
2023/07/22 05:34:34;;;;;;;19.98;8.68;;;13.60;99.90;;;;;;5136114;27;20043;-73
2023/07/22 05:36:59;;;;;;;19.10;9.02;;;13.60;99.90;;;;;;5135581;27;20051;-71
2023/07/22 05:39:26;;;;;;;20.40;9.00;;;13.70;99.90;;;;;;5122961;27;20077;-72
2023/07/22 05:41:51;;;;;;;19.63;9.43;;;13.70;99.90;;;;;;5144109;27;20047;-72
2023/07/22 05:44:17;;;;;;;21.90;10.45;;;13.80;99.90;;;;;;5135110;27;20039;-74
2023/07/22 05:46:43;;;;;;;23.95;10.23;;;13.80;99.90;;;;;;5117618;27;20092;-73
2023/07/22 05:49:10;;;;;;;24.25;10.30;;;13.80;99.90;;;;;;5100585;27;20035;-73
2023/07/22 05:51:36;;;;;;;22.85;10.10;;;13.90;99.90;;;;;;5118533;27;20051;-72
2023/07/22 05:54:02;;;;;;;23.53;10.30;;;14.00;99.90;;;;;;5100834;27;20092;-72
2023/07/22 05:56:28;;;;;;;23.45;10.30;;;14.10;99.90;;;;;;5135517;27;20391;-71
2023/07/22 05:58:54;;;;;;;23.50;10.40;;;14.20;99.90;;;;;;5100465;27;20055;-72
2023/07/22 06:01:20;;;;;;;26.08;10.43;;;14.20;99.90;;;;;;5151452;27;20099;-73
2023/07/22 06:03:45;;;;;;;24.58;10.60;;;14.30;99.90;;;;;;5083498;27;20125;-73
2023/07/22 06:06:14;;;;;;;24.73;11.20;;;14.30;99.90;;;;;;5135365;27;20043;-72
2023/07/22 06:08:40;;;;;;;26.92;11.27;;;14.40;99.90;;;;;;5133992;27;20054;-73
2023/07/22 06:11:05;;;;;;;29.80;11.30;;;14.40;99.90;;;;;;5117174;27;20043;-73
2023/07/22 06:13:31;;;;;;;26.67;11.20;;;14.50;99.90;;;;;;5100385;27;20486;-72
2023/07/22 06:15:57;;;;;;;26.70;11.18;;;14.50;99.90;;;;;;5135522;27;20340;-73
2023/07/22 06:18:23;;;;;;;24.40;11.07;;;14.60;99.90;;;;;;5117513;27;20039;-73
2023/07/22 06:20:50;;;;;;;25.73;11.83;;;14.70;99.90;;;;;;5117209;27;20108;-72
2023/07/22 06:23:15;;;;;;;28.30;11.48;;;14.70;99.90;;;;;;5100360;28;20035;-73
2023/07/22 06:25:41;;;;;;;25.25;10.98;;;14.70;99.90;;;;;;5135808;27;20050;-72
2023/07/22 06:28:07;;;;;;;26.70;12.10;;;14.70;99.90;;;;;;5135416;27;20088;-73
2023/07/22 06:30:32;;;;;;;22.85;11.43;;;14.70;99.90;;;;;;5151204;27;20474;-73
2023/07/22 06:32:58;;;;;;;28.42;11.93;;;14.70;99.90;;;;;;5117080;27;20513;-73
2023/07/22 06:35:24;;;;;;;30.00;12.02;;;14.70;99.90;;;;;;5135263;27;20050;-71
2023/07/22 06:37:50;;;;;;;26.80;11.73;;;14.70;99.90;;;;;;5135050;27;20078;-72
2023/07/22 06:40:16;;;;;;;28.92;12.02;;;14.70;99.90;;;;;;5135010;27;20451;-73
2023/07/22 06:42:47;;;;;;;27.33;11.88;;;14.70;99.90;;;;;;5151107;27;20111;-72
2023/07/22 06:45:13;;;;;;;25.60;10.98;;;14.80;99.90;;;;;;5102714;27;20039;-72
2023/07/22 06:47:38;;;;;;;28.58;11.75;;;14.90;99.90;;;;;;5136556;28;20047;-71
2023/07/22 06:50:05;;;;;;;27.83;11.80;;;15.00;99.90;;;;;;5141930;27;20435;-71
2023/07/22 06:52:31;;;;;;;28.00;12.60;;;15.10;99.90;;;;;;5117838;28;20080;-72
2023/07/22 06:54:57;;;;;;;26.80;12.02;;;15.30;99.90;;;;;;5134886;27;20280;-72
2023/07/22 06:57:25;;;;;;;28.90;12.23;;;15.40;99.90;;;;;;5095820;28;20052;-70
2023/07/22 06:59:55;;;;;;;29.88;12.63;;;15.50;99.90;;;;;;5113376;28;20059;-76
2023/07/22 07:02:21;;;;;;;26.52;12.32;;;15.70;99.90;;;;;;5096349;28;20039;-71
2023/07/22 07:04:47;;;;;;;24.52;11.48;;;15.90;99.90;;;;;;5112775;28;20044;-72
2023/07/22 07:07:13;;;;;;;28.60;12.15;;;16.00;99.90;;;;;;5079873;28;20087;-72
2023/07/22 07:09:40;;;;;;;28.48;12.20;;;16.10;99.90;;;;;;5113344;28;20083;-71
2023/07/22 07:12:06;;;;;;;27.13;11.80;;;16.20;99.90;;;;;;5113976;28;20059;-73
2023/07/22 07:14:35;;;;;;;26.30;11.00;;;16.30;99.90;;;;;;5096003;28;20044;-71
2023/07/22 07:17:02;;;;;;;26.20;11.82;;;16.30;99.90;;;;;;5114763;28;20384;-70
2023/07/22 07:19:28;;;;;;;27.15;11.30;;;16.40;99.90;;;;;;5112520;28;20546;-71
2023/07/22 07:21:54;;;;;;;27.65;11.07;;;16.40;99.90;;;;;;5096228;28;20090;-72
2023/07/22 07:24:20;;;;;;;26.35;11.90;;;16.30;99.90;;;;;;5112863;28;20077;-71
2023/07/22 07:26:47;;;;;;;24.67;11.50;;;16.40;99.90;;;;;;5115792;28;20513;-71
2023/07/22 07:29:13;;;;;;;27.08;12.25;;;16.40;99.90;;;;;;5117025;28;20102;-72
2023/07/22 07:31:39;;;;;;;22.95;11.30;;;16.40;99.90;;;;;;5117882;28;20043;-72
2023/07/22 07:34:05;;;;;;;22.90;11.32;;;16.50;99.90;;;;;;5099358;28;20043;-72
2023/07/22 07:36:32;;;;;;;21.67;10.07;;;16.60;99.90;;;;;;5117035;28;20040;-71
2023/07/22 07:38:58;;;;;;;24.38;11.27;;;16.70;99.90;;;;;;5118380;28;20066;-71
2023/07/22 07:41:23;;;;;;;23.98;11.27;;;16.70;99.90;;;;;;5116562;28;20487;-72
2023/07/22 07:43:49;;;;;;;23.75;11.45;;;16.70;99.90;;;;;;5099516;28;20047;-72
2023/07/22 07:46:21;;;;;;;24.67;11.57;;;16.90;99.90;;;;;;5117454;28;20445;-72
2023/07/22 07:48:49;;;;;;;23.95;10.52;;;16.90;99.90;;;;;;5117625;28;20087;-72
2023/07/22 07:51:16;;;;;;;26.75;11.90;;;17.10;99.90;;;;;;5117342;28;20100;-72
2023/07/22 07:53:43;;;;;;;24.20;11.68;;;17.20;99.90;;;;;;5124915;28;20040;-72
2023/07/22 07:56:10;;;;;;;25.27;11.60;;;17.30;99.90;;;;;;5138775;27;20054;-71
2023/07/22 07:58:36;;;;;;;25.85;10.88;;;17.30;99.90;;;;;;5140268;27;20403;-72
2023/07/22 08:01:02;;;;;;;23.23;10.50;;;17.40;99.90;;;;;;5120090;27;20130;-72
2023/07/22 08:03:28;;;;;;;23.52;11.32;;;17.50;99.90;;;;;;5120197;27;20053;-73
2023/07/22 08:05:54;;;;;;;21.92;10.90;;;17.50;99.90;;;;;;5119461;27;20043;-73
2023/07/22 08:08:21;;;;;;;22.85;11.32;;;17.50;99.90;;;;;;5119663;27;20050;-72
2023/07/22 08:10:48;;;;;;;;;;;17.50;99.90;;;;;;5138273;27;20055;-73
2023/07/22 08:13:14;;;;;;;24.65;11.00;;;17.60;99.90;;;;;;5137508;27;19926;-73
2023/07/22 08:15:41;;;;;;;23.60;10.63;;;17.80;99.90;;;;;;5137441;27;20043;-72
2023/07/22 08:18:07;;;;;;;20.48;10.05;;;17.90;99.90;;;;;;5119200;27;20066;-73
2023/07/22 08:20:33;;;;;;;23.38;10.77;;;17.90;99.90;;;;;;5102384;27;20046;-73
2023/07/22 08:22:59;;;;;;;20.17;9.53;;;17.90;99.90;;;;;;5119362;27;20046;-71
2023/07/22 08:25:24;;;;;;;22.17;10.77;;;17.90;99.90;;;;;;5102219;27;20046;-73
2023/07/22 08:27:50;;;;;;;25.07;10.70;;;18.00;99.90;;;;;;5118650;27;20050;-72
2023/07/22 08:30:16;;;;;;;24.13;9.90;;;18.00;99.90;;;;;;5137537;27;20039;-70
2023/07/22 08:32:41;;;;;;;26.45;10.23;;;18.30;99.90;;;;;;5118659;27;20131;-72
2023/07/22 08:35:07;;;;;;;21.60;10.10;;;18.60;99.90;;;;;;5118653;27;20047;-73
2023/07/22 08:37:33;;;;;;;24.23;10.87;;;18.80;99.90;;;;;;5135862;27;20043;-73
2023/07/22 08:39:59;;;;;;;22.33;10.50;;;18.80;99.90;;;;;;5118920;27;20043;-72
2023/07/22 08:42:27;;;;;;;24.30;9.60;;;19.00;99.90;;;;;;5136863;27;20153;-71
2023/07/22 08:45:00;;;;;;;19.17;9.10;;;19.10;99.90;;;;;;5102105;27;20039;-72
2023/07/22 08:47:29;;;;;;;15.98;8.23;;;19.10;99.90;;;;;;5119663;27;20110;-71
2023/07/22 08:49:57;;;;;;;18.13;8.60;;;19.10;99.90;;;;;;5119355;27;20099;-73
2023/07/22 08:52:23;;;;;;;19.88;9.48;;;19.10;99.90;;;;;;5136679;27;20047;-72
2023/07/22 08:54:50;;;;;;;17.87;8.60;;;19.00;99.90;;;;;;5153221;27;20376;-72
2023/07/22 08:57:17;;;;;;;;;;;19.10;99.90;;;;;;5136722;27;20063;-72
2023/07/22 08:59:44;;;;;;;18.00;7.80;;;19.30;99.90;;;;;;5136878;27;19920;-71
2023/07/22 09:02:13;;;;;;;18.80;8.15;;;19.40;99.90;;;;;;5118902;27;20058;-73
2023/07/22 09:04:41;;;;;;;18.17;7.90;;;19.60;99.90;;;;;;5147685;27;20054;-71
2023/07/22 09:07:08;;;;;;;16.38;7.85;;;19.60;99.90;;;;;;5133732;27;20065;-71
2023/07/22 09:09:34;;;;;;;;;;;19.40;99.90;;;;;;5118926;27;20047;-73
2023/07/22 09:12:01;;;;;;;16.58;8.13;;;19.10;99.90;;;;;;5152600;27;19967;-72
2023/07/22 09:14:28;;;;;;;18.02;8.32;;;18.70;99.90;;;;;;5136358;27;20406;-74
2023/07/22 09:16:54;;;;;;;;;;;18.30;99.90;;;;;;5136774;27;20395;-69
2023/07/22 09:19:20;;;;;;;21.87;10.37;;;17.90;99.90;;;;;;5118065;27;19919;-68
2023/07/22 09:21:45;;;;;;;22.07;9.93;;;17.30;99.90;;;;;;5118112;27;20085;-69
2023/07/22 09:24:22;;;;;;;25.57;11.00;;;17.00;99.90;;;;;;5136181;27;20051;-73
2023/07/22 09:26:48;;;;;;;25.25;10.80;;;16.70;99.90;;;;;;5118225;27;20043;-68
2023/07/22 09:29:14;;;;;;;25.13;11.97;;;16.50;99.90;;;;;;5136125;27;20051;-69
2023/07/22 09:31:50;;;;;;;25.40;12.03;;;16.30;99.90;;;;;;5136390;27;20043;-68
2023/07/22 09:34:16;;;;;;;21.90;10.02;;;16.20;99.90;;;;;;5136017;27;20043;-67
2023/07/22 09:36:52;;;;;;;19.53;8.30;;;16.10;99.90;;;;;;5117808;27;20051;-68
2023/07/22 09:39:18;;;;;;;20.75;8.98;;;16.20;99.90;;;;;;5152871;27;20058;-67
2023/07/22 09:41:44;;;;;;;19.63;9.03;;;16.30;99.90;;;;;;5117414;27;20051;-67
2023/07/22 09:44:11;;;;;;;17.73;9.17;;;16.50;99.90;;;;;;5135484;27;20399;-69
2023/07/22 09:46:36;;;;;;;16.48;9.10;;;16.70;99.90;;;;;;5118426;27;20039;-67
2023/07/22 09:49:04;;;;;;;19.00;8.97;;;16.90;99.90;;;;;;5100650;27;20121;-69
2023/07/22 09:51:36;;;;;;;18.23;8.48;;;17.10;99.90;;;;;;5136065;27;20051;-69
2023/07/22 09:54:03;;;;;;;21.17;9.15;;;17.30;99.90;;;;;;5135863;27;20089;-69
2023/07/22 09:56:30;;;;;;;18.80;8.95;;;17.40;99.90;;;;;;5116804;27;20118;-68
2023/07/22 09:59:03;;;;;;;20.67;9.20;;;17.60;99.90;;;;;;5136109;27;20051;-70
2023/07/22 10:01:30;;;;;;;18.65;9.35;;;17.60;99.90;;;;;;5135993;27;20046;-69
2023/07/22 10:03:56;;;;;;;20.08;9.48;;;17.70;99.90;;;;;;5135783;27;20040;-70
2023/07/22 10:06:28;;;;;;;17.63;9.05;;;17.70;99.90;;;;;;5117171;27;20133;-70
2023/07/22 10:08:56;;;;;;;19.15;9.68;;;17.60;99.90;;;;;;5135101;27;20494;-69
2023/07/22 10:11:24;;;;;;;18.98;8.50;;;17.70;99.90;;;;;;5135787;27;20047;-69
2023/07/22 10:13:52;;;;;;;17.67;8.75;;;17.80;99.90;;;;;;5143434;27;20121;-69
2023/07/22 10:16:18;;;;;;;17.33;9.05;;;18.00;99.90;;;;;;5142379;27;20043;-75
2023/07/22 10:18:46;;;;;;;21.13;9.70;;;18.10;99.90;;;;;;5116836;27;20046;-69
2023/07/22 10:21:13;;;;;;;19.15;8.23;;;18.10;99.90;;;;;;5135114;27;20043;-70
2023/07/22 10:23:39;;;;;;;20.48;8.52;;;18.10;99.90;;;;;;5116731;27;20039;-69
2023/07/22 10:26:05;;;;;;;18.25;8.73;;;18.00;99.90;;;;;;5117302;27;20055;-70
2023/07/22 10:28:32;;;;;;;20.35;8.95;;;17.90;99.90;;;;;;5116787;27;20117;-68
2023/07/22 10:30:58;;;;;;;17.95;9.25;;;17.90;99.90;;;;;;5134776;27;20116;-70
2023/07/22 10:33:25;;;;;;;18.65;9.63;;;17.90;99.90;;;;;;5116731;27;20039;-71
2023/07/22 10:36:08;;;;;;;17.30;9.68;;;17.80;99.90;;;;;;5116432;27;20077;-70
2023/07/22 10:38:35;;;;;;;17.48;8.77;;;17.80;99.90;;;;;;5116167;27;20482;-70
2023/07/22 10:41:10;;;;;;;19.77;10.07;;;18.00;99.90;;;;;;5151148;27;20188;-70
2023/07/22 10:43:36;;;;;;;21.33;9.68;;;18.00;99.90;;;;;;5135284;27;20038;-68
2023/07/22 10:46:12;;;;;;;20.37;9.30;;;18.10;99.90;;;;;;5151360;27;20042;-68
2023/07/22 10:48:42;;;;;;;20.30;9.60;;;18.10;99.90;;;;;;5134760;27;20412;-69
2023/07/22 10:51:15;;;;;;;16.73;9.05;;;18.10;99.90;;;;;;5151561;27;20463;-69
2023/07/22 10:53:48;;;;;;;18.50;9.40;;;18.10;99.90;;;;;;5134546;27;20035;-69
2023/07/22 10:56:21;;;;;;;19.02;9.65;;;18.10;99.90;;;;;;5116187;28;20117;-70
2023/07/22 10:58:47;;;;;;;19.02;9.23;;;18.00;99.90;;;;;;5135136;28;20053;-69
2023/07/22 11:01:28;;;;;;;19.70;9.17;;;17.90;99.90;;;;;;5115545;28;20047;-69
2023/07/22 11:04:12;;;;;;;17.60;8.80;;;17.70;99.90;;;;;;5115688;28;20039;-69
2023/07/22 11:06:44;;;;;;;19.83;8.70;;;17.60;99.90;;;;;;5116272;28;20047;-69
2023/07/22 11:09:34;;;;;;;14.88;6.95;;;17.50;99.90;;;;;;5135137;28;20050;-68
2023/07/22 11:12:17;;;;;;;11.40;6.25;;;17.50;99.90;;;;;;5116505;28;20047;-70
2023/07/22 11:14:49;;;;;;;11.38;5.55;;;17.50;99.90;;;;;;5115893;28;20043;-68
2023/07/22 11:17:17;;;;;;;12.85;6.43;;;17.40;99.90;;;;;;5134401;28;20483;-69
2023/07/22 11:19:43;;;;;;;12.15;6.13;;;17.30;99.90;;;;;;5134136;28;20387;-67
2023/07/22 11:22:10;;;;;;;12.98;6.30;;;17.20;99.90;;;;;;5135718;28;20099;-71
2023/07/22 11:24:36;;;;;;;16.23;6.82;;;17.00;99.90;;;;;;5126071;28;20090;-68
2023/07/22 11:27:08;;;;;;;13.18;7.03;;;16.60;99.90;;;;;;5103934;28;20102;-70
2023/07/22 11:29:34;;;;;;;12.65;6.88;;;16.40;99.90;;;;;;5116105;28;20487;-68
2023/07/22 11:32:01;;;;;;;12.07;7.00;;;16.30;99.90;;;;;;5150814;27;20039;-68
2023/07/22 11:34:27;;;;;;;14.35;7.63;;;16.20;99.90;;;;;;5134293;28;20039;-69
2023/07/22 11:36:54;;;;;;;12.50;7.18;;;16.20;99.90;;;;;;5134030;28;20387;-68
2023/07/22 11:39:22;;;;;;;12.18;7.22;;;16.30;99.90;;;;;;5134111;28;20043;-67
2023/07/22 11:41:48;;;;;;;11.65;7.15;;;16.40;99.90;;;;;;5150275;27;20047;-67
2023/07/22 11:44:17;;;;;;;10.98;6.78;;;16.40;99.90;;;;;;5098647;28;20445;-67
2023/07/22 11:46:56;;;;;;;13.35;6.75;;;16.50;99.90;;;;;;5115578;28;20039;-68
2023/07/22 11:49:46;;;;;;;12.90;8.05;;;16.60;99.90;;;;;;5134350;28;20054;-68
2023/07/22 11:52:19;;;;;;;12.77;7.65;;;16.70;99.90;;;;;;5099726;28;20062;-68
2023/07/22 11:54:46;;;;;;;12.23;7.22;;;16.70;99.90;;;;;;5134170;28;20051;-68
2023/07/22 11:57:18;;;;;;;12.52;7.32;;;16.80;99.90;;;;;;5115776;28;20164;-68
2023/07/22 11:59:48;;;;;;;12.85;6.97;;;16.70;99.90;;;;;;5115513;28;20435;-67
2023/07/22 12:02:22;;;;;;;14.98;7.70;;;16.70;99.90;;;;;;5115681;28;20047;-69
2023/07/22 12:04:59;;;;;;;7.03;3.55;;;16.70;99.90;;;;;;5116202;28;20058;-69
2023/07/22 12:07:27;;;;;;;10.30;6.65;;;16.70;99.90;;;;;;5134620;28;20074;-69
2023/07/22 12:09:54;;;;;;;11.95;7.15;;;16.80;99.90;;;;;;5133948;28;20137;-69
2023/07/22 12:12:20;;;;;;;11.90;7.47;;;16.80;99.90;;;;;;5134915;27;20051;-72
2023/07/22 12:14:46;;;;;;;11.98;6.80;;;16.80;99.90;;;;;;5137748;27;20567;-69
2023/07/22 12:17:12;;;;;;;11.68;7.18;;;16.60;99.90;;;;;;5119466;27;20039;-69
2023/07/22 12:19:37;;;;;;;14.63;7.35;;;16.40;99.90;;;;;;5137545;27;20132;-72
2023/07/22 12:22:03;;;;;;;12.47;7.80;;;16.40;99.90;;;;;;5137579;27;20097;-68
2023/07/22 12:24:30;;;;;;;15.85;8.93;;;16.30;99.90;;;;;;5137605;27;20043;-72
2023/07/22 12:26:55;;;;;;;14.93;9.00;;;16.20;99.90;;;;;;5137932;27;20042;-72
2023/07/22 12:29:22;;;;;;;17.73;9.55;;;16.10;99.90;;;;;;5157385;27;20053;-70
2023/07/22 12:31:48;;;;;;;15.57;9.27;;;15.90;99.90;;;;;;5129760;27;20096;-70
2023/07/22 12:34:13;;;;;;;13.10;8.60;;;15.80;99.90;;;;;;5137426;27;20054;-72
2023/07/22 12:36:40;;;;;;;12.82;8.95;;;15.60;99.90;;;;;;5118896;27;20277;-69